OEBA/ABT METAR and TAF weather

Enter ICAO airport designator
Station Type Date Time Source
OEBA METAR 2022/05/24 11:00 UTC NOAA

OEBA 241100Z 02006KT CAVOK 34/08 Q1017 NOSIG


Station Type Date Time Source
OEBA Decoded METAR 2022/05/24 11:00 UTC NOAA

Al Baha, Saudi Arabia (OEBA) 20-18N 041-38E 1662M
May 24, 2022 - 07:00 AM EDT / 2022.05.24 1100 UTC
Wind: from the NNE (020 degrees) at 7 MPH (6 KT):0
Visibility: greater than 7 mile(s):0
Temperature: 93 F (34 C)
Dew Point: 46 F (8 C)
Relative Humidity: 20%
Pressure (altimeter): 30.03 in. Hg (1017 hPa)
ob: OEBA 241100Z 02006KT CAVOK 34/08 Q1017 NOSIG
cycle: 11

Station Type Date Time Source
OEBA TAF 2022/05/24 12:27 UTC NOAA

TAF OEBA 241100Z 2412/2518 24016KT 7000 NSC
TEMPO 2412/2422 2500 DU PROB30
TEMPO 2414/2420 0800
BECMG 2418/2420 27010KT
BECMG 2506/2508 04006KT

Example: see airport list